City of Colorado Springs Municipal Airport
KCOS : now visible

Airfield :











YOU CAN JOIN US ON...

 
LOGIN :

Register | Disclaimer

   EN    FR    IT 

 









Legend :    VFR   Marginal VFR   IFR   Intensive IFR   Very Intensive IFR
Visi :
Ceiling :
>= 8 km
>= 3000ft
5 to 8 km
1000 to 3000 ft
1500m to 5 km
500 to 1000 ft
800 to 1500m
200 to 500 ft
< 800m
< 200 ft
Symbols :   Thunderstorms  Fog  Heavy snow  Heavy precipitations  Wind > 20 kt






- Airport Elevation : 6187 ft
- IATA code : COS


KCOS - City of Colorado Springs Municipal

CURRENT METAR :
  • 122354Z 14004KT 10SM SCT250 07/M07 A3006 RMK AO2 SLP217 T00671072 10128 20061 58009

EXPIRED METARs :
  • 122254Z 16008KT 10SM SCT250 11/M07 A3007 RMK AO2 SLP204 T01061072
  • 122154Z 15004KT 10SM SCT250 12/M11 A3008 RMK AO2 SLP208 T01221106

TAF KCOS
Valid from the 13 at 00:00 until the 14 at 00:00 UTC


122324Z 1300/1324 15006KT P6SM SCT250
FM130300 36006KT P6SM SCT250
FM130900 35009KT P6SM SCT140 BKN250
FM131400 35012KT P6SM BKN200
FM131800 01016KT P6SM SCT200



MET'MAP, your aeronautical weather chart ! - Copyright ORBIFLY December 2007 - Disclaimer

ORBIFLY MET'MAP TEAM :

Programming & Development : Alexandra Zaïnal
Concept & Development : Baudouin d'Aumeries
Co-Development & Prog : Marc-Olivier Méhu
Technical & hardware support : Manuel Goepfert

Contact : metmap@orbifly.com




SOURCES & CREDITS :

   NOAA       Earth
Advisory